Weeping Water, NE (68463)

6:47 AM CST on December 10, 2016 (GMT -0600)
Lee's Garden | | Change Station

Elev 1191 ft 40.91 °N, 96.01 °W | Updated 19 seconds ago

Overcast
Overcast
22.7 °F
Feels Like 15 °F
N
6.0
Wind Variable Wind from SSE

Today
High -- | Low -- °F
--% Chance of Precip.
Yesterday
High -- | Low -- °F
Precip. -- in
Pressure 30.38 in
Visibility 10.0 miles
Clouds Overcast 8000 ft
Windchill 15 °F
Dew Point 16 °F
Humidity 76%
Rainfall 0.00 in
Snow Depth Not available.
7:38 AM 4:56 PM
Waxing Gibbous, 83% visible
METAR KPMV 101235Z AUTO 10006KT 10SM OVC080 M05/M10 A3038 RMK AO2 T10461100
Pressure 30.38 in
Visibility 10.0 miles
Clouds Overcast 8000 ft
Windchill 15 °F
Dew Point 16 °F
Humidity 76%
Rainfall 0.00 in
Snow Depth Not available.
7:38 AM 4:56 PM
Waxing Gibbous, 83% visible
METAR KPMV 101235Z AUTO 10006KT 10SM OVC080 M05/M10 A3038 RMK AO2 T10461100

10-Day Weather Forecast

Almanac

Astronomy

Dec. 10, 2016 Rise Set
Actual Time
Civil Twilight
Nautical Twilight
Astronomical Twilight
Moon
Length of Visible Light
Length of Day
Tomorrow will be .
, % of the Moon is Illuminated

Today's Extremes

State Highs State Lows

Community

WunderPhotos

Upload Photos

1,956,540 photos uploaded!

WunderBlog® & News

Nearby

Air Quality

  Air Quality AQ Index Pollutant
Not available.

Snow Depth

Station Depth Elevation

Earthquake Activity

City Distance Mag. Time & Date
Minimum magnitude displayed is 2.5.

Coastal Water Temperatures

Place Temperature

Stations

Nearby Weather Stations

Station Location Temp. Windchill Dew Point Humidity Wind Precip. Elev Updated Type
                   

Watches & Warnings

There are currently no watches in effect.